sensor_id;sensor_type;location;lat;lon;timestamp;P1;durP1;ratioP1;P2;durP2;ratioP2
39676;SDS011;27789;50.840;4.386;2022-12-18T00:01:56;47.50;;;22.90;;
39676;SDS011;27789;50.840;4.386;2022-12-18T00:04:24;51.45;;;24.90;;
39676;SDS011;27789;50.840;4.386;2022-12-18T00:06:51;47.92;;;24.20;;
39676;SDS011;27789;50.840;4.386;2022-12-18T00:09:17;47.97;;;23.42;;
39676;SDS011;27789;50.840;4.386;2022-12-18T00:11:43;45.65;;;24.35;;
39676;SDS011;27789;50.840;4.386;2022-12-18T00:14:09;44.10;;;22.83;;
39676;SDS011;27789;50.840;4.386;2022-12-18T00:16:37;47.65;;;24.00;;
39676;SDS011;27789;50.840;4.386;2022-12-18T00:19:03;47.42;;;24.38;;
39676;SDS011;27789;50.840;4.386;2022-12-18T00:21:29;47.28;;;23.90;;
39676;SDS011;27789;50.840;4.386;2022-12-18T00:23:57;45.08;;;21.80;;
39676;SDS011;27789;50.840;4.386;2022-12-18T00:26:25;48.00;;;23.90;;
39676;SDS011;27789;50.840;4.386;2022-12-18T00:28:53;44.13;;;22.67;;
39676;SDS011;27789;50.840;4.386;2022-12-18T00:31:21;47.25;;;21.95;;
39676;SDS011;27789;50.840;4.386;2022-12-18T00:33:48;40.70;;;22.30;;
39676;SDS011;27789;50.840;4.386;2022-12-18T00:36:14;41.13;;;21.42;;
39676;SDS011;27789;50.840;4.386;2022-12-18T00:38:42;43.63;;;21.95;;
39676;SDS011;27789;50.840;4.386;2022-12-18T00:41:08;45.20;;;22.05;;
39676;SDS011;27789;50.840;4.386;2022-12-18T00:43:35;37.20;;;19.73;;
39676;SDS011;27789;50.840;4.386;2022-12-18T00:46:01;43.42;;;20.95;;
39676;SDS011;27789;50.840;4.386;2022-12-18T00:48:27;41.35;;;20.20;;
39676;SDS011;27789;50.840;4.386;2022-12-18T00:50:52;36.15;;;20.25;;
39676;SDS011;27789;50.840;4.386;2022-12-18T00:53:18;42.92;;;19.42;;
39676;SDS011;27789;50.840;4.386;2022-12-18T00:55:44;39.92;;;19.60;;
39676;SDS011;27789;50.840;4.386;2022-12-18T00:58:11;41.85;;;20.25;;
39676;SDS011;27789;50.840;4.386;2022-12-18T01:00:37;39.63;;;19.67;;
39676;SDS011;27789;50.840;4.386;2022-12-18T01:03:03;42.17;;;19.65;;
39676;SDS011;27789;50.840;4.386;2022-12-18T01:05:30;36.63;;;18.63;;
39676;SDS011;27789;50.840;4.386;2022-12-18T01:07:56;34.97;;;18.48;;
39676;SDS011;27789;50.840;4.386;2022-12-18T01:10:22;38.47;;;19.48;;
39676;SDS011;27789;50.840;4.386;2022-12-18T01:12:48;43.88;;;19.65;;
39676;SDS011;27789;50.840;4.386;2022-12-18T01:15:14;38.80;;;19.55;;
39676;SDS011;27789;50.840;4.386;2022-12-18T01:17:41;39.40;;;19.90;;
39676;SDS011;27789;50.840;4.386;2022-12-18T01:20:07;36.05;;;18.30;;
39676;SDS011;27789;50.840;4.386;2022-12-18T01:22:34;37.67;;;19.10;;
39676;SDS011;27789;50.840;4.386;2022-12-18T01:25:00;38.40;;;17.98;;
39676;SDS011;27789;50.840;4.386;2022-12-18T01:27:26;32.63;;;17.33;;
39676;SDS011;27789;50.840;4.386;2022-12-18T01:29:52;35.42;;;20.33;;
39676;SDS011;27789;50.840;4.386;2022-12-18T01:32:17;35.42;;;18.83;;
39676;SDS011;27789;50.840;4.386;2022-12-18T01:34:43;31.95;;;17.25;;
39676;SDS011;27789;50.840;4.386;2022-12-18T01:37:09;34.28;;;16.60;;
39676;SDS011;27789;50.840;4.386;2022-12-18T01:39:35;33.65;;;16.70;;
39676;SDS011;27789;50.840;4.386;2022-12-18T01:42:19;33.03;;;17.35;;
39676;SDS011;27789;50.840;4.386;2022-12-18T01:44:55;31.70;;;17.20;;
39676;SDS011;27789;50.840;4.386;2022-12-18T01:50:05;30.75;;;14.95;;
39676;SDS011;27789;50.840;4.386;2022-12-18T01:52:38;30.05;;;15.07;;
39676;SDS011;27789;50.840;4.386;2022-12-18T01:55:06;27.73;;;15.02;;
39676;SDS011;27789;50.840;4.386;2022-12-18T01:57:33;28.17;;;13.63;;
39676;SDS011;27789;50.840;4.386;2022-12-18T02:00:00;29.58;;;14.20;;
39676;SDS011;27789;50.840;4.386;2022-12-18T02:02:29;30.25;;;15.00;;
39676;SDS011;27789;50.840;4.386;2022-12-18T02:04:55;36.60;;;15.40;;
39676;SDS011;27789;50.840;4.386;2022-12-18T02:07:34;28.98;;;14.00;;
39676;SDS011;27789;50.840;4.386;2022-12-18T02:13:01;24.88;;;12.95;;
39676;SDS011;27789;50.840;4.386;2022-12-18T02:18:11;26.90;;;14.15;;
39676;SDS011;27789;50.840;4.386;2022-12-18T02:20:50;25.03;;;14.17;;
39676;SDS011;27789;50.840;4.386;2022-12-18T02:28:59;30.55;;;15.07;;
39676;SDS011;27789;50.840;4.386;2022-12-18T02:31:30;32.53;;;13.45;;
39676;SDS011;27789;50.840;4.386;2022-12-18T02:34:02;26.92;;;14.63;;
39676;SDS011;27789;50.840;4.386;2022-12-18T02:36:29;26.33;;;13.45;;
39676;SDS011;27789;50.840;4.386;2022-12-18T02:38:57;27.23;;;13.45;;
39676;SDS011;27789;50.840;4.386;2022-12-18T02:41:24;30.05;;;15.65;;
39676;SDS011;27789;50.840;4.386;2022-12-18T02:43:59;27.27;;;13.00;;
39676;SDS011;27789;50.840;4.386;2022-12-18T02:49:15;30.85;;;13.85;;
39676;SDS011;27789;50.840;4.386;2022-12-18T02:51:55;30.25;;;14.43;;
39676;SDS011;27789;50.840;4.386;2022-12-18T02:57:13;24.02;;;13.00;;
39676;SDS011;27789;50.840;4.386;2022-12-18T02:59:49;24.15;;;13.07;;
39676;SDS011;27789;50.840;4.386;2022-12-18T03:02:25;27.77;;;13.43;;
39676;SDS011;27789;50.840;4.386;2022-12-18T03:05:00;27.38;;;12.57;;
39676;SDS011;27789;50.840;4.386;2022-12-18T03:10:14;26.23;;;11.85;;
39676;SDS011;27789;50.840;4.386;2022-12-18T03:13:19;23.25;;;12.90;;
39676;SDS011;27789;50.840;4.386;2022-12-18T03:15:47;24.80;;;12.07;;
39676;SDS011;27789;50.840;4.386;2022-12-18T03:18:22;26.30;;;13.18;;
39676;SDS011;27789;50.840;4.386;2022-12-18T03:21:09;22.35;;;12.05;;
39676;SDS011;27789;50.840;4.386;2022-12-18T03:23:43;25.17;;;12.88;;
39676;SDS011;27789;50.840;4.386;2022-12-18T03:26:14;24.05;;;11.82;;
39676;SDS011;27789;50.840;4.386;2022-12-18T03:28:47;23.92;;;12.52;;
39676;SDS011;27789;50.840;4.386;2022-12-18T03:31:17;23.02;;;12.10;;
39676;SDS011;27789;50.840;4.386;2022-12-18T03:33:52;21.92;;;11.30;;
39676;SDS011;27789;50.840;4.386;2022-12-18T03:36:19;25.67;;;11.80;;
39676;SDS011;27789;50.840;4.386;2022-12-18T03:38:45;24.52;;;12.85;;
39676;SDS011;27789;50.840;4.386;2022-12-18T03:41:15;21.75;;;11.93;;
39676;SDS011;27789;50.840;4.386;2022-12-18T03:46:27;28.92;;;12.52;;
39676;SDS011;27789;50.840;4.386;2022-12-18T03:49:18;22.83;;;11.73;;
39676;SDS011;27789;50.840;4.386;2022-12-18T03:51:44;21.27;;;11.45;;
39676;SDS011;27789;50.840;4.386;2022-12-18T03:54:16;27.67;;;12.32;;
39676;SDS011;27789;50.840;4.386;2022-12-18T03:56:44;18.25;;;11.40;;
39676;SDS011;27789;50.840;4.386;2022-12-18T03:59:14;24.85;;;11.63;;
39676;SDS011;27789;50.840;4.386;2022-12-18T04:01:43;20.48;;;11.10;;
39676;SDS011;27789;50.840;4.386;2022-12-18T04:04:12;30.58;;;13.35;;
39676;SDS011;27789;50.840;4.386;2022-12-18T04:06:41;22.40;;;11.13;;
39676;SDS011;27789;50.840;4.386;2022-12-18T04:09:08;20.95;;;12.15;;
39676;SDS011;27789;50.840;4.386;2022-12-18T04:11:34;20.85;;;11.30;;
39676;SDS011;27789;50.840;4.386;2022-12-18T04:14:00;26.15;;;12.70;;
39676;SDS011;27789;50.840;4.386;2022-12-18T04:16:26;23.70;;;12.18;;
39676;SDS011;27789;50.840;4.386;2022-12-18T04:18:52;23.65;;;11.45;;
39676;SDS011;27789;50.840;4.386;2022-12-18T04:21:19;21.38;;;11.43;;
39676;SDS011;27789;50.840;4.386;2022-12-18T04:23:45;21.10;;;11.27;;
39676;SDS011;27789;50.840;4.386;2022-12-18T04:26:10;23.23;;;12.40;;
39676;SDS011;27789;50.840;4.386;2022-12-18T04:28:36;21.42;;;11.02;;
39676;SDS011;27789;50.840;4.386;2022-12-18T04:31:02;22.95;;;11.27;;
39676;SDS011;27789;50.840;4.386;2022-12-18T04:33:28;18.05;;;10.07;;
39676;SDS011;27789;50.840;4.386;2022-12-18T04:35:53;19.83;;;12.02;;
39676;SDS011;27789;50.840;4.386;2022-12-18T04:38:19;21.42;;;11.77;;
39676;SDS011;27789;50.840;4.386;2022-12-18T04:40:44;23.85;;;13.23;;
39676;SDS011;27789;50.840;4.386;2022-12-18T04:43:10;20.30;;;10.80;;
39676;SDS011;27789;50.840;4.386;2022-12-18T04:45:35;20.05;;;11.65;;
39676;SDS011;27789;50.840;4.386;2022-12-18T04:48:01;18.80;;;11.38;;
39676;SDS011;27789;50.840;4.386;2022-12-18T04:50:27;23.63;;;12.10;;
39676;SDS011;27789;50.840;4.386;2022-12-18T04:52:53;26.48;;;12.98;;
39676;SDS011;27789;50.840;4.386;2022-12-18T04:55:20;23.42;;;11.48;;
39676;SDS011;27789;50.840;4.386;2022-12-18T04:57:49;23.60;;;12.07;;
39676;SDS011;27789;50.840;4.386;2022-12-18T05:00:15;24.02;;;11.45;;
39676;SDS011;27789;50.840;4.386;2022-12-18T05:02:41;22.95;;;12.82;;
39676;SDS011;27789;50.840;4.386;2022-12-18T05:05:06;20.65;;;11.48;;
39676;SDS011;27789;50.840;4.386;2022-12-18T05:07:32;22.75;;;10.95;;
39676;SDS011;27789;50.840;4.386;2022-12-18T05:09:58;25.63;;;11.25;;
39676;SDS011;27789;50.840;4.386;2022-12-18T05:12:23;22.30;;;11.15;;
39676;SDS011;27789;50.840;4.386;2022-12-18T05:14:49;22.75;;;11.48;;
39676;SDS011;27789;50.840;4.386;2022-12-18T05:17:15;22.80;;;10.27;;
39676;SDS011;27789;50.840;4.386;2022-12-18T05:19:40;23.13;;;11.30;;
39676;SDS011;27789;50.840;4.386;2022-12-18T05:22:06;23.60;;;10.98;;
39676;SDS011;27789;50.840;4.386;2022-12-18T05:24:32;20.30;;;10.20;;
39676;SDS011;27789;50.840;4.386;2022-12-18T05:26:58;22.92;;;11.98;;
39676;SDS011;27789;50.840;4.386;2022-12-18T05:29:23;29.52;;;11.90;;
39676;SDS011;27789;50.840;4.386;2022-12-18T05:31:49;20.65;;;10.40;;
39676;SDS011;27789;50.840;4.386;2022-12-18T05:34:14;22.50;;;10.75;;
39676;SDS011;27789;50.840;4.386;2022-12-18T05:36:40;17.50;;;10.65;;
39676;SDS011;27789;50.840;4.386;2022-12-18T05:39:06;17.85;;;9.63;;
39676;SDS011;27789;50.840;4.386;2022-12-18T05:41:31;21.38;;;10.18;;
39676;SDS011;27789;50.840;4.386;2022-12-18T05:43:57;18.73;;;11.50;;
39676;SDS011;27789;50.840;4.386;2022-12-18T05:46:23;19.15;;;10.15;;
39676;SDS011;27789;50.840;4.386;2022-12-18T05:48:49;18.55;;;10.27;;
39676;SDS011;27789;50.840;4.386;2022-12-18T05:51:17;21.10;;;11.32;;
39676;SDS011;27789;50.840;4.386;2022-12-18T05:53:44;23.80;;;10.82;;
39676;SDS011;27789;50.840;4.386;2022-12-18T05:56:11;14.00;;;9.00;;
39676;SDS011;27789;50.840;4.386;2022-12-18T05:58:39;18.45;;;9.57;;
39676;SDS011;27789;50.840;4.386;2022-12-18T06:01:06;19.70;;;10.25;;
39676;SDS011;27789;50.840;4.386;2022-12-18T06:03:34;18.98;;;9.90;;
39676;SDS011;27789;50.840;4.386;2022-12-18T06:06:00;17.73;;;8.95;;
39676;SDS011;27789;50.840;4.386;2022-12-18T06:08:25;13.45;;;8.18;;
39676;SDS011;27789;50.840;4.386;2022-12-18T06:10:51;18.55;;;9.05;;
39676;SDS011;27789;50.840;4.386;2022-12-18T06:13:17;16.50;;;9.10;;
39676;SDS011;27789;50.840;4.386;2022-12-18T06:15:44;18.48;;;9.43;;
39676;SDS011;27789;50.840;4.386;2022-12-18T06:18:09;15.95;;;8.52;;
39676;SDS011;27789;50.840;4.386;2022-12-18T06:20:35;17.65;;;8.82;;
39676;SDS011;27789;50.840;4.386;2022-12-18T06:23:02;20.02;;;9.45;;
39676;SDS011;27789;50.840;4.386;2022-12-18T06:25:28;16.88;;;9.15;;
39676;SDS011;27789;50.840;4.386;2022-12-18T06:27:53;16.65;;;9.10;;
39676;SDS011;27789;50.840;4.386;2022-12-18T06:30:19;26.92;;;9.75;;
39676;SDS011;27789;50.840;4.386;2022-12-18T06:32:45;21.88;;;9.65;;
39676;SDS011;27789;50.840;4.386;2022-12-18T06:35:12;17.52;;;9.40;;
39676;SDS011;27789;50.840;4.386;2022-12-18T06:37:38;17.33;;;9.35;;
39676;SDS011;27789;50.840;4.386;2022-12-18T06:40:03;20.00;;;9.65;;
39676;SDS011;27789;50.840;4.386;2022-12-18T06:42:30;16.60;;;9.70;;
39676;SDS011;27789;50.840;4.386;2022-12-18T06:44:55;17.20;;;9.23;;
39676;SDS011;27789;50.840;4.386;2022-12-18T06:47:21;19.95;;;9.55;;
39676;SDS011;27789;50.840;4.386;2022-12-18T06:49:46;15.15;;;9.15;;
39676;SDS011;27789;50.840;4.386;2022-12-18T06:52:12;17.30;;;9.13;;
39676;SDS011;27789;50.840;4.386;2022-12-18T06:54:37;13.00;;;8.32;;
39676;SDS011;27789;50.840;4.386;2022-12-18T06:57:03;15.98;;;8.30;;
39676;SDS011;27789;50.840;4.386;2022-12-18T06:59:29;18.05;;;8.70;;
39676;SDS011;27789;50.840;4.386;2022-12-18T07:01:54;12.50;;;7.88;;
39676;SDS011;27789;50.840;4.386;2022-12-18T07:04:20;13.60;;;9.02;;
39676;SDS011;27789;50.840;4.386;2022-12-18T07:06:45;14.93;;;8.02;;
39676;SDS011;27789;50.840;4.386;2022-12-18T07:09:11;23.08;;;9.10;;
39676;SDS011;27789;50.840;4.386;2022-12-18T07:11:37;16.70;;;8.35;;
39676;SDS011;27789;50.840;4.386;2022-12-18T07:14:02;14.25;;;8.55;;
39676;SDS011;27789;50.840;4.386;2022-12-18T07:16:28;14.20;;;8.10;;
39676;SDS011;27789;50.840;4.386;2022-12-18T07:18:54;14.45;;;8.60;;
39676;SDS011;27789;50.840;4.386;2022-12-18T07:21:21;16.95;;;8.55;;
39676;SDS011;27789;50.840;4.386;2022-12-18T07:23:47;15.80;;;8.15;;
39676;SDS011;27789;50.840;4.386;2022-12-18T07:26:13;18.88;;;9.40;;
39676;SDS011;27789;50.840;4.386;2022-12-18T07:28:40;14.93;;;7.65;;
39676;SDS011;27789;50.840;4.386;2022-12-18T07:31:08;16.70;;;8.70;;
39676;SDS011;27789;50.840;4.386;2022-12-18T07:33:38;14.38;;;7.88;;
39676;SDS011;27789;50.840;4.386;2022-12-18T07:36:04;12.63;;;7.10;;
39676;SDS011;27789;50.840;4.386;2022-12-18T07:38:31;14.27;;;8.65;;
39676;SDS011;27789;50.840;4.386;2022-12-18T07:41:02;14.00;;;7.90;;
39676;SDS011;27789;50.840;4.386;2022-12-18T07:43:32;12.57;;;7.40;;
39676;SDS011;27789;50.840;4.386;2022-12-18T07:45:58;13.27;;;7.47;;
39676;SDS011;27789;50.840;4.386;2022-12-18T07:48:24;14.93;;;7.90;;
39676;SDS011;27789;50.840;4.386;2022-12-18T07:50:50;14.00;;;8.18;;
39676;SDS011;27789;50.840;4.386;2022-12-18T07:53:16;14.23;;;8.32;;
39676;SDS011;27789;50.840;4.386;2022-12-18T07:55:41;16.40;;;8.48;;
39676;SDS011;27789;50.840;4.386;2022-12-18T07:58:07;15.30;;;8.52;;
39676;SDS011;27789;50.840;4.386;2022-12-18T08:00:33;14.75;;;8.63;;
39676;SDS011;27789;50.840;4.386;2022-12-18T08:02:59;16.17;;;9.00;;
39676;SDS011;27789;50.840;4.386;2022-12-18T08:05:25;15.25;;;7.97;;
39676;SDS011;27789;50.840;4.386;2022-12-18T08:07:51;13.10;;;7.80;;
39676;SDS011;27789;50.840;4.386;2022-12-18T08:10:17;14.02;;;7.85;;
39676;SDS011;27789;50.840;4.386;2022-12-18T08:12:42;14.00;;;7.85;;
39676;SDS011;27789;50.840;4.386;2022-12-18T08:15:08;16.17;;;8.80;;
39676;SDS011;27789;50.840;4.386;2022-12-18T08:17:34;19.08;;;8.90;;
39676;SDS011;27789;50.840;4.386;2022-12-18T08:20:00;72.68;;;30.05;;
39676;SDS011;27789;50.840;4.386;2022-12-18T08:22:25;21.95;;;9.93;;
39676;SDS011;27789;50.840;4.386;2022-12-18T08:24:51;16.05;;;8.18;;
39676;SDS011;27789;50.840;4.386;2022-12-18T08:27:17;18.85;;;8.00;;
39676;SDS011;27789;50.840;4.386;2022-12-18T08:29:42;15.95;;;8.80;;
39676;SDS011;27789;50.840;4.386;2022-12-18T08:32:09;17.20;;;8.55;;
39676;SDS011;27789;50.840;4.386;2022-12-18T08:34:35;15.93;;;8.70;;
39676;SDS011;27789;50.840;4.386;2022-12-18T08:37:01;16.85;;;8.60;;
39676;SDS011;27789;50.840;4.386;2022-12-18T08:39:26;14.38;;;8.23;;
39676;SDS011;27789;50.840;4.386;2022-12-18T08:41:52;13.52;;;8.48;;
39676;SDS011;27789;50.840;4.386;2022-12-18T08:44:28;17.73;;;8.82;;
39676;SDS011;27789;50.840;4.386;2022-12-18T08:47:05;14.85;;;8.75;;
39676;SDS011;27789;50.840;4.386;2022-12-18T08:49:32;19.17;;;8.60;;
39676;SDS011;27789;50.840;4.386;2022-12-18T08:51:58;15.63;;;8.85;;
39676;SDS011;27789;50.840;4.386;2022-12-18T08:54:24;15.70;;;8.88;;
39676;SDS011;27789;50.840;4.386;2022-12-18T08:56:50;20.75;;;9.38;;
39676;SDS011;27789;50.840;4.386;2022-12-18T08:59:16;16.92;;;10.40;;
39676;SDS011;27789;50.840;4.386;2022-12-18T09:01:42;18.25;;;8.88;;
39676;SDS011;27789;50.840;4.386;2022-12-18T09:04:09;16.58;;;9.13;;
39676;SDS011;27789;50.840;4.386;2022-12-18T09:06:35;14.95;;;9.00;;
39676;SDS011;27789;50.840;4.386;2022-12-18T09:09:01;18.00;;;9.50;;
39676;SDS011;27789;50.840;4.386;2022-12-18T09:11:29;15.70;;;9.70;;
39676;SDS011;27789;50.840;4.386;2022-12-18T09:13:56;18.75;;;8.85;;
39676;SDS011;27789;50.840;4.386;2022-12-18T09:16:23;16.05;;;9.18;;
39676;SDS011;27789;50.840;4.386;2022-12-18T09:18:50;19.73;;;10.75;;
39676;SDS011;27789;50.840;4.386;2022-12-18T09:21:17;19.38;;;9.98;;
39676;SDS011;27789;50.840;4.386;2022-12-18T09:23:45;16.98;;;9.80;;
39676;SDS011;27789;50.840;4.386;2022-12-18T09:26:17;16.88;;;9.90;;
39676;SDS011;27789;50.840;4.386;2022-12-18T09:28:43;16.40;;;10.10;;
39676;SDS011;27789;50.840;4.386;2022-12-18T09:31:10;20.02;;;10.05;;
39676;SDS011;27789;50.840;4.386;2022-12-18T09:33:37;17.90;;;9.60;;
39676;SDS011;27789;50.840;4.386;2022-12-18T09:36:03;17.20;;;9.73;;
39676;SDS011;27789;50.840;4.386;2022-12-18T09:38:31;18.25;;;9.57;;
39676;SDS011;27789;50.840;4.386;2022-12-18T09:40:59;18.90;;;10.20;;
39676;SDS011;27789;50.840;4.386;2022-12-18T09:46:01;21.75;;;11.50;;
39676;SDS011;27789;50.840;4.386;2022-12-18T09:48:32;22.70;;;10.98;;
39676;SDS011;27789;50.840;4.386;2022-12-18T09:53:50;17.75;;;11.02;;
39676;SDS011;27789;50.840;4.386;2022-12-18T09:56:20;17.35;;;9.85;;
39676;SDS011;27789;50.840;4.386;2022-12-18T10:01:27;24.15;;;11.73;;
39676;SDS011;27789;50.840;4.386;2022-12-18T10:03:55;20.02;;;11.80;;
39676;SDS011;27789;50.840;4.386;2022-12-18T10:09:24;25.70;;;12.82;;
39676;SDS011;27789;50.840;4.386;2022-12-18T10:22:23;22.23;;;12.27;;
39676;SDS011;27789;50.840;4.386;2022-12-18T10:25:04;24.42;;;12.23;;
39676;SDS011;27789;50.840;4.386;2022-12-18T10:27:56;22.15;;;13.00;;
39676;SDS011;27789;50.840;4.386;2022-12-18T10:30:25;23.58;;;13.63;;
39676;SDS011;27789;50.840;4.386;2022-12-18T10:32:51;23.45;;;12.90;;
39676;SDS011;27789;50.840;4.386;2022-12-18T10:35:24;23.92;;;12.57;;
39676;SDS011;27789;50.840;4.386;2022-12-18T10:43:16;28.00;;;14.18;;
39676;SDS011;27789;50.840;4.386;2022-12-18T10:45:57;22.17;;;12.75;;
39676;SDS011;27789;50.840;4.386;2022-12-18T10:54:05;24.85;;;13.73;;
39676;SDS011;27789;50.840;4.386;2022-12-18T10:56:39;25.85;;;14.23;;
39676;SDS011;27789;50.840;4.386;2022-12-18T10:59:06;29.77;;;14.25;;
39676;SDS011;27789;50.840;4.386;2022-12-18T11:09:29;26.05;;;14.93;;
39676;SDS011;27789;50.840;4.386;2022-12-18T11:11:58;23.58;;;14.45;;
39676;SDS011;27789;50.840;4.386;2022-12-18T11:14:32;24.90;;;14.57;;
39676;SDS011;27789;50.840;4.386;2022-12-18T11:17:01;24.05;;;14.55;;
39676;SDS011;27789;50.840;4.386;2022-12-18T11:19:34;25.98;;;15.38;;
39676;SDS011;27789;50.840;4.386;2022-12-18T11:22:01;24.35;;;13.82;;
39676;SDS011;27789;50.840;4.386;2022-12-18T11:24:49;21.67;;;13.10;;
39676;SDS011;27789;50.840;4.386;2022-12-18T11:30:27;24.27;;;12.82;;
39676;SDS011;27789;50.840;4.386;2022-12-18T11:38:05;27.30;;;14.25;;
39676;SDS011;27789;50.840;4.386;2022-12-18T11:43:38;24.80;;;12.57;;
39676;SDS011;27789;50.840;4.386;2022-12-18T11:46:12;25.40;;;13.40;;
39676;SDS011;27789;50.840;4.386;2022-12-18T11:49:01;21.83;;;13.93;;
39676;SDS011;27789;50.840;4.386;2022-12-18T11:51:34;24.50;;;11.45;;
39676;SDS011;27789;50.840;4.386;2022-12-18T11:54:12;23.63;;;13.25;;
39676;SDS011;27789;50.840;4.386;2022-12-18T11:56:42;23.70;;;13.35;;
39676;SDS011;27789;50.840;4.386;2022-12-18T11:59:42;26.58;;;13.50;;
39676;SDS011;27789;50.840;4.386;2022-12-18T12:02:22;22.55;;;11.98;;
39676;SDS011;27789;50.840;4.386;2022-12-18T12:39:47;32.88;;;16.05;;
39676;SDS011;27789;50.840;4.386;2022-12-18T12:42:35;25.55;;;13.50;;
39676;SDS011;27789;50.840;4.386;2022-12-18T12:45:22;29.48;;;14.77;;
39676;SDS011;27789;50.840;4.386;2022-12-18T12:47:55;23.30;;;13.43;;
39676;SDS011;27789;50.840;4.386;2022-12-18T12:50:23;26.75;;;14.80;;
39676;SDS011;27789;50.840;4.386;2022-12-18T12:52:51;34.72;;;17.83;;
39676;SDS011;27789;50.840;4.386;2022-12-18T12:55:20;31.90;;;16.38;;
39676;SDS011;27789;50.840;4.386;2022-12-18T12:57:54;29.00;;;16.05;;
39676;SDS011;27789;50.840;4.386;2022-12-18T13:00:21;31.65;;;16.13;;
39676;SDS011;27789;50.840;4.386;2022-12-18T13:02:51;32.92;;;16.50;;
39676;SDS011;27789;50.840;4.386;2022-12-18T13:05:29;30.85;;;15.48;;
39676;SDS011;27789;50.840;4.386;2022-12-18T13:08:07;33.97;;;17.48;;
39676;SDS011;27789;50.840;4.386;2022-12-18T13:10:46;33.78;;;17.65;;
39676;SDS011;27789;50.840;4.386;2022-12-18T13:15:40;32.30;;;16.38;;
39676;SDS011;27789;50.840;4.386;2022-12-18T13:20:45;37.72;;;17.95;;
39676;SDS011;27789;50.840;4.386;2022-12-18T13:33:46;35.45;;;18.20;;
39676;SDS011;27789;50.840;4.386;2022-12-18T13:41:36;35.63;;;17.35;;
39676;SDS011;27789;50.840;4.386;2022-12-18T13:46:48;36.65;;;18.63;;
39676;SDS011;27789;50.840;4.386;2022-12-18T13:52:02;35.33;;;17.00;;
39676;SDS011;27789;50.840;4.386;2022-12-18T13:54:41;38.35;;;20.30;;
39676;SDS011;27789;50.840;4.386;2022-12-18T13:59:55;39.83;;;19.20;;
39676;SDS011;27789;50.840;4.386;2022-12-18T14:02:23;40.40;;;19.83;;
39676;SDS011;27789;50.840;4.386;2022-12-18T14:04:50;39.13;;;20.88;;
39676;SDS011;27789;50.840;4.386;2022-12-18T14:07:35;36.47;;;16.67;;
39676;SDS011;27789;50.840;4.386;2022-12-18T14:10:02;43.88;;;21.45;;
39676;SDS011;27789;50.840;4.386;2022-12-18T14:12:32;37.63;;;19.45;;
39676;SDS011;27789;50.840;4.386;2022-12-18T14:15:53;39.22;;;18.52;;
39676;SDS011;27789;50.840;4.386;2022-12-18T14:20:45;44.22;;;22.05;;
39676;SDS011;27789;50.840;4.386;2022-12-18T14:26:17;43.58;;;19.73;;
39676;SDS011;27789;50.840;4.386;2022-12-18T14:28:54;49.50;;;20.40;;
39676;SDS011;27789;50.840;4.386;2022-12-18T14:31:26;43.30;;;21.58;;
39676;SDS011;27789;50.840;4.386;2022-12-18T14:33:53;45.30;;;20.05;;
39676;SDS011;27789;50.840;4.386;2022-12-18T14:36:26;44.40;;;21.83;;
39676;SDS011;27789;50.840;4.386;2022-12-18T14:38:56;47.50;;;21.85;;
39676;SDS011;27789;50.840;4.386;2022-12-18T14:41:23;45.83;;;21.77;;
39676;SDS011;27789;50.840;4.386;2022-12-18T14:43:51;46.47;;;22.15;;
39676;SDS011;27789;50.840;4.386;2022-12-18T14:48:57;45.75;;;22.33;;
39676;SDS011;27789;50.840;4.386;2022-12-18T14:51:25;46.53;;;24.13;;
39676;SDS011;27789;50.840;4.386;2022-12-18T14:53:53;42.95;;;21.30;;
39676;SDS011;27789;50.840;4.386;2022-12-18T14:58:49;43.85;;;22.05;;
39676;SDS011;27789;50.840;4.386;2022-12-18T15:01:19;38.92;;;20.70;;
39676;SDS011;27789;50.840;4.386;2022-12-18T15:03:47;47.00;;;23.65;;
39676;SDS011;27789;50.840;4.386;2022-12-18T15:11:25;47.38;;;23.23;;
39676;SDS011;27789;50.840;4.386;2022-12-18T15:13:52;44.97;;;21.98;;
39676;SDS011;27789;50.840;4.386;2022-12-18T15:16:18;43.95;;;21.30;;
39676;SDS011;27789;50.840;4.386;2022-12-18T15:18:44;46.97;;;22.30;;
39676;SDS011;27789;50.840;4.386;2022-12-18T15:21:10;45.25;;;22.02;;
39676;SDS011;27789;50.840;4.386;2022-12-18T15:26:12;43.22;;;21.08;;
39676;SDS011;27789;50.840;4.386;2022-12-18T15:36:22;50.53;;;25.00;;
39676;SDS011;27789;50.840;4.386;2022-12-18T15:38:49;47.05;;;21.08;;
39676;SDS011;27789;50.840;4.386;2022-12-18T15:41:16;42.35;;;22.00;;
39676;SDS011;27789;50.840;4.386;2022-12-18T15:43:44;40.78;;;22.25;;
39676;SDS011;27789;50.840;4.386;2022-12-18T15:46:11;42.00;;;21.45;;
39676;SDS011;27789;50.840;4.386;2022-12-18T15:48:42;38.80;;;20.33;;
39676;SDS011;27789;50.840;4.386;2022-12-18T15:56:21;46.28;;;19.98;;
39676;SDS011;27789;50.840;4.386;2022-12-18T15:58:58;43.63;;;20.50;;
39676;SDS011;27789;50.840;4.386;2022-12-18T16:01:29;48.25;;;21.52;;
39676;SDS011;27789;50.840;4.386;2022-12-18T16:03:56;41.70;;;20.27;;
39676;SDS011;27789;50.840;4.386;2022-12-18T16:06:22;40.90;;;19.20;;
39676;SDS011;27789;50.840;4.386;2022-12-18T16:08:48;50.78;;;20.25;;
39676;SDS011;27789;50.840;4.386;2022-12-18T16:11:23;40.78;;;19.70;;
39676;SDS011;27789;50.840;4.386;2022-12-18T16:14:01;42.97;;;20.35;;
39676;SDS011;27789;50.840;4.386;2022-12-18T16:16:27;42.50;;;19.17;;
39676;SDS011;27789;50.840;4.386;2022-12-18T16:18:52;40.72;;;19.48;;
39676;SDS011;27789;50.840;4.386;2022-12-18T16:21:18;41.00;;;19.75;;
39676;SDS011;27789;50.840;4.386;2022-12-18T16:23:43;40.38;;;20.05;;
39676;SDS011;27789;50.840;4.386;2022-12-18T16:26:09;40.97;;;19.95;;
39676;SDS011;27789;50.840;4.386;2022-12-18T16:28:34;39.80;;;19.23;;
39676;SDS011;27789;50.840;4.386;2022-12-18T16:31:00;40.10;;;18.73;;
39676;SDS011;27789;50.840;4.386;2022-12-18T16:33:25;38.13;;;18.73;;
39676;SDS011;27789;50.840;4.386;2022-12-18T16:35:52;39.97;;;17.73;;
39676;SDS011;27789;50.840;4.386;2022-12-18T16:38:18;41.10;;;18.30;;
39676;SDS011;27789;50.840;4.386;2022-12-18T16:40:43;42.45;;;18.88;;
39676;SDS011;27789;50.840;4.386;2022-12-18T16:43:29;40.25;;;17.63;;
39676;SDS011;27789;50.840;4.386;2022-12-18T16:45:55;42.60;;;19.05;;
39676;SDS011;27789;50.840;4.386;2022-12-18T16:48:23;39.92;;;19.02;;
39676;SDS011;27789;50.840;4.386;2022-12-18T16:50:49;40.28;;;18.30;;
39676;SDS011;27789;50.840;4.386;2022-12-18T16:53:14;35.03;;;18.05;;
39676;SDS011;27789;50.840;4.386;2022-12-18T16:55:40;35.28;;;17.15;;
39676;SDS011;27789;50.840;4.386;2022-12-18T16:58:05;41.80;;;19.95;;
39676;SDS011;27789;50.840;4.386;2022-12-18T17:00:31;33.15;;;16.90;;
39676;SDS011;27789;50.840;4.386;2022-12-18T17:02:56;38.25;;;18.35;;
39676;SDS011;27789;50.840;4.386;2022-12-18T17:05:22;35.42;;;17.88;;
39676;SDS011;27789;50.840;4.386;2022-12-18T17:07:47;35.85;;;18.02;;
39676;SDS011;27789;50.840;4.386;2022-12-18T17:10:13;35.03;;;17.45;;
39676;SDS011;27789;50.840;4.386;2022-12-18T17:12:39;37.22;;;17.13;;
39676;SDS011;27789;50.840;4.386;2022-12-18T17:15:04;39.97;;;19.05;;
39676;SDS011;27789;50.840;4.386;2022-12-18T17:17:30;37.88;;;18.10;;
39676;SDS011;27789;50.840;4.386;2022-12-18T17:19:56;34.92;;;15.95;;
39676;SDS011;27789;50.840;4.386;2022-12-18T17:22:22;39.15;;;19.13;;
39676;SDS011;27789;50.840;4.386;2022-12-18T17:24:47;41.92;;;20.05;;
39676;SDS011;27789;50.840;4.386;2022-12-18T17:27:13;34.40;;;17.27;;